Time;durP1;ratioP1;P1;durP2;ratioP2;P2;SDS_P1;SDS_P2;PMS_P1;PMS_P2;Temp;Humidity;BMP_temperature;BMP_pressure;BME280_temperature;BME280_humidity;BME280_pressure;Samples;Min_cycle;Max_cycle;Signal;HPM_P1;HPM_P2
2022/01/28 00:00:14;;;;;;;13.55;2.53;;;6.00;99.90;;;;;;5118790;28;20131;-72
2022/01/28 00:05:03;;;;;;;12.40;2.63;;;5.90;99.90;;;;;;5119590;28;20054;-73
2022/01/28 00:07:28;;;;;;;14.75;3.47;;;5.90;99.90;;;;;;5104673;28;20539;-73
2022/01/28 00:09:54;;;;;;;12.30;2.10;;;5.40;99.90;;;;;;5121821;28;20053;-73
2022/01/28 00:12:20;;;;;;;18.90;1.80;;;6.10;99.90;;;;;;5102948;28;20573;-75
2022/01/28 00:15:05;;;;;;;11.00;2.08;;;5.60;99.90;;;;;;5120225;28;20047;-72
2022/01/28 00:18:17;;;;;;;7.00;2.03;;;5.40;99.90;;;;;;5104357;28;20104;-72
2022/01/28 00:39:12;;;;;;;14.95;3.00;;;5.60;99.90;;;;;;5124729;27;20146;-73
2022/01/28 00:41:38;;;;;;;12.75;2.00;;;5.70;99.90;;;;;;5073984;27;20596;-73
2022/01/28 00:44:04;;;;;;;14.60;2.80;;;5.40;99.90;;;;;;5083799;27;20376;-73
2022/01/28 00:46:30;;;;;;;15.00;3.10;;;5.80;99.90;;;;;;5105912;27;20074;-74
2022/01/28 00:48:56;;;;;;;10.23;2.42;;;5.80;99.90;;;;;;5089448;27;20074;-71
2022/01/28 00:51:22;;;;;;;19.65;3.55;;;5.60;99.90;;;;;;5107076;27;20047;-72
2022/01/28 00:53:48;;;;;;;21.50;4.88;;;6.00;99.90;;;;;;5108109;27;20693;-72
2022/01/28 00:56:14;;;;;;;20.75;2.80;;;6.40;99.90;;;;;;5122879;27;20081;-72
2022/01/28 00:58:40;;;;;;;17.80;3.95;;;5.70;99.90;;;;;;5123453;27;20039;-72
2022/01/28 01:01:05;;;;;;;14.05;3.17;;;6.20;99.90;;;;;;5123597;27;20099;-72
2022/01/28 01:03:31;;;;;;;12.05;2.25;;;6.20;99.90;;;;;;5106758;27;20047;-72
2022/01/28 01:05:57;;;;;;;11.70;2.95;;;6.20;99.90;;;;;;5090718;27;20122;-72
2022/01/28 01:08:23;;;;;;;10.32;2.30;;;6.10;99.90;;;;;;5105008;27;20065;-73
2022/01/28 01:10:50;;;;;;;12.13;2.40;;;6.50;99.90;;;;;;5123224;27;20150;-73
2022/01/28 01:13:16;;;;;;;9.57;2.15;;;5.60;99.90;;;;;;5107029;27;20058;-73
2022/01/28 01:15:45;;;;;;;18.30;2.80;;;5.60;99.90;;;;;;5123214;27;20670;-73
2022/01/28 01:18:22;;;;;;;16.85;3.28;;;5.50;99.90;;;;;;5105579;27;20039;-73
2022/01/28 01:23:29;;;;;;;11.05;3.60;;;5.70;99.90;;;;;;5106236;27;20160;-74
2022/01/28 01:28:37;;;;;;;9.70;2.63;;;5.30;99.90;;;;;;5124167;27;20082;-73
2022/01/28 01:31:05;;;;;;;14.43;3.50;;;6.10;99.90;;;;;;5123295;27;20043;-73
2022/01/28 01:33:38;;;;;;;18.77;3.42;;;5.60;99.90;;;;;;5105029;27;20505;-73
2022/01/28 01:36:04;;;;;;;17.52;2.80;;;5.30;99.90;;;;;;5107873;27;20410;-73
2022/01/28 01:38:34;;;;;;;14.93;3.60;;;5.60;99.90;;;;;;5125266;27;20090;-73
2022/01/28 01:41:03;;;;;;;21.25;3.08;;;5.30;99.90;;;;;;5111599;27;20410;-73
2022/01/28 01:54:18;;;;;;;20.30;4.22;;;5.30;99.90;;;;;;5127149;27;20045;-73
2022/01/28 01:56:44;;;;;;;21.77;4.90;;;5.40;99.90;;;;;;5127595;27;20043;-73
2022/01/28 01:59:10;;;;;;;12.57;3.40;;;5.50;99.90;;;;;;5125101;27;20047;-73
2022/01/28 02:01:38;;;;;;;14.38;3.20;;;5.50;99.90;;;;;;5124396;27;20584;-73
2022/01/28 02:04:04;;;;;;;19.75;3.83;;;5.70;99.90;;;;;;5111135;27;20039;-72
2022/01/28 02:06:30;;;;;;;16.83;3.63;;;5.60;99.90;;;;;;5117464;27;20038;-74
2022/01/28 02:08:56;;;;;;;20.35;3.78;;;6.00;99.90;;;;;;5136656;27;20440;-73
2022/01/28 02:11:22;;;;;;;9.77;2.97;;;5.60;99.90;;;;;;5101616;27;20046;-76
2022/01/28 02:13:50;;;;;;;21.48;3.83;;;5.60;99.90;;;;;;5117252;27;20066;-75
2022/01/28 02:16:16;;;;;;;17.58;3.55;;;5.60;99.90;;;;;;5117815;27;20399;-76
2022/01/28 02:18:42;;;;;;;12.20;3.08;;;6.00;99.90;;;;;;5116093;27;20047;-75
2022/01/28 02:21:10;;;;;;;20.17;3.58;;;5.80;99.90;;;;;;5114515;27;20045;-76
2022/01/28 02:23:37;;;;;;;19.98;3.40;;;5.80;99.90;;;;;;5134457;27;20041;-76
2022/01/28 02:26:04;;;;;;;19.20;3.75;;;6.10;99.90;;;;;;5134255;27;20046;-75
2022/01/28 02:28:33;;;;;;;17.98;3.13;;;5.70;99.90;;;;;;5114444;27;20095;-76
2022/01/28 02:31:02;;;;;;;13.38;2.83;;;5.90;99.90;;;;;;5117726;27;20046;-75
2022/01/28 02:33:28;;;;;;;12.02;2.72;;;5.80;99.90;;;;;;5131274;27;20066;-75
2022/01/28 02:35:53;;;;;;;13.55;2.92;;;6.10;99.90;;;;;;5116666;27;20074;-75
2022/01/28 02:38:22;;;;;;;16.27;2.70;;;5.80;99.90;;;;;;5094899;27;20058;-75
2022/01/28 02:40:57;;;;;;;13.45;3.60;;;5.80;99.90;;;;;;5108354;27;20107;-75
2022/01/28 02:45:51;;;;;;;15.73;3.05;;;5.80;99.90;;;;;;5126654;27;20576;-74
2022/01/28 02:48:24;;;;;;;14.73;2.85;;;5.80;99.90;;;;;;5126870;27;20047;-75
2022/01/28 02:53:39;;;;;;;15.07;3.10;;;5.90;99.90;;;;;;5129233;27;20042;-75
2022/01/28 02:56:14;;;;;;;20.20;3.28;;;5.70;99.90;;;;;;5128875;27;20062;-75
2022/01/28 02:58:40;;;;;;;20.40;4.57;;;5.80;99.90;;;;;;5129564;27;20100;-75
2022/01/28 03:01:06;;;;;;;16.65;3.95;;;5.80;99.90;;;;;;5121550;27;20043;-75
2022/01/28 03:03:32;;;;;;;22.08;4.10;;;5.70;99.90;;;;;;5079820;28;20039;-75
2022/01/28 03:05:57;;;;;;;16.58;3.80;;;5.80;99.90;;;;;;5121238;27;20332;-75
2022/01/28 03:08:27;;;;;;;19.95;3.92;;;5.80;99.90;;;;;;5101857;28;20483;-75
2022/01/28 03:16:22;;;;;;;23.90;3.67;;;5.80;99.90;;;;;;5115217;27;20039;-75
2022/01/28 03:21:24;;;;;;;18.35;4.13;;;6.10;99.90;;;;;;5095488;27;20038;-75
2022/01/28 03:23:51;;;;;;;23.30;4.60;;;5.80;99.90;;;;;;5102521;28;20399;-75
2022/01/28 03:26:17;;;;;;;21.77;5.63;;;6.00;99.90;;;;;;5101792;27;20087;-75
2022/01/28 03:28:42;;;;;;;18.55;3.22;;;6.30;99.90;;;;;;5112546;27;20043;-75
2022/01/28 03:31:08;;;;;;;20.20;4.22;;;5.80;99.90;;;;;;5129039;27;20099;-76
2022/01/28 03:33:34;;;;;;;20.10;4.75;;;6.00;99.90;;;;;;5127278;27;20144;-75
2022/01/28 03:36:03;;;;;;;17.27;3.50;;;5.80;99.90;;;;;;5129664;27;20039;-75
2022/01/28 03:38:29;;;;;;;11.07;2.97;;;5.80;99.90;;;;;;5128047;28;20059;-75
2022/01/28 03:40:56;;;;;;;6.43;2.55;;;5.90;99.90;;;;;;5112669;28;20035;-76
2022/01/28 03:43:23;;;;;;;13.93;4.13;;;5.80;99.90;;;;;;5127881;28;20042;-75
2022/01/28 03:45:48;;;;;;;9.27;2.55;;;5.80;99.90;;;;;;5129965;28;20039;-75
2022/01/28 03:48:14;;;;;;;13.45;3.03;;;5.80;99.90;;;;;;5125640;28;20053;-75
2022/01/28 03:50:40;;;;;;;10.85;2.22;;;5.70;99.90;;;;;;5127885;28;20486;-75
2022/01/28 03:53:07;;;;;;;17.00;3.15;;;5.70;99.90;;;;;;5089362;28;20061;-76
2022/01/28 03:55:33;;;;;;;20.40;2.78;;;5.70;99.90;;;;;;5091790;28;20134;-75
2022/01/28 03:57:59;;;;;;;15.40;3.03;;;5.70;99.90;;;;;;5104508;27;20135;-75
2022/01/28 04:00:27;;;;;;;21.58;3.08;;;5.80;99.90;;;;;;5114637;27;20038;-75
2022/01/28 04:03:04;;;;;;;15.55;3.28;;;5.60;99.90;;;;;;5114932;27;20035;-76
2022/01/28 04:13:30;;;;;;;9.65;2.30;;;5.70;99.90;;;;;;5123000;27;20104;-75
2022/01/28 04:18:25;;;;;;;11.68;3.30;;;5.80;99.90;;;;;;5132218;27;20134;-75
2022/01/28 04:20:51;;;;;;;17.17;3.67;;;5.80;99.90;;;;;;5099084;27;20379;-75
2022/01/28 04:23:18;;;;;;;17.42;3.55;;;5.80;99.90;;;;;;5133075;27;20046;-76
2022/01/28 04:25:44;;;;;;;18.17;3.08;;;5.70;99.90;;;;;;5115824;27;20066;-76
2022/01/28 04:28:10;;;;;;;21.30;3.65;;;5.80;99.90;;;;;;5113446;27;20134;-75
2022/01/28 04:30:35;;;;;;;11.48;3.05;;;5.70;99.90;;;;;;5115970;27;20055;-74
2022/01/28 04:33:01;;;;;;;9.88;3.22;;;5.80;99.90;;;;;;5132978;27;20043;-74
2022/01/28 04:35:27;;;;;;;23.00;4.40;;;6.30;99.90;;;;;;5115176;27;20035;-74
2022/01/28 04:40:28;;;;;;;20.23;3.22;;;5.70;99.90;;;;;;5111945;27;20375;-74
2022/01/28 04:43:14;;;;;;;14.73;3.38;;;5.80;99.90;;;;;;5132202;27;20035;-76
2022/01/28 04:46:08;;;;;;;10.55;2.38;;;5.80;99.90;;;;;;5101414;27;20488;-75
2022/01/28 04:48:42;;;;;;;24.08;3.47;;;5.80;99.90;;;;;;5116492;27;20044;-74
2022/01/28 04:54:41;;;;;;;21.92;3.95;;;5.80;99.90;;;;;;5082493;28;20415;-74
2022/01/28 04:57:13;;;;;;;13.82;3.20;;;5.80;99.90;;;;;;5079392;28;20043;-75
2022/01/28 05:02:38;;;;;;;12.05;2.65;;;5.90;99.90;;;;;;5111825;28;20132;-74
2022/01/28 05:27:10;;;;;;;20.70;3.50;;;5.40;99.90;;;;;;5111125;28;20052;-73
2022/01/28 05:29:26;;;;;;;13.30;2.70;;;5.40;99.90;;;;;;5096287;27;20051;-74
2022/01/28 05:31:52;;;;;;;20.95;3.17;;;5.40;99.90;;;;;;5131470;27;20178;-74
2022/01/28 05:34:18;;;;;;;14.70;2.72;;;5.40;99.90;;;;;;5098037;27;20047;-74
2022/01/28 05:36:44;;;;;;;13.00;3.65;;;5.80;99.90;;;;;;5114443;27;20104;-74
2022/01/28 05:39:10;;;;;;;19.13;3.50;;;5.50;99.90;;;;;;5131787;27;20039;-74
2022/01/28 05:41:36;;;;;;;16.48;3.17;;;5.60;99.90;;;;;;5114023;27;20039;-74
2022/01/28 05:44:02;;;;;;;13.48;3.30;;;5.60;99.90;;;;;;5114670;27;20086;-74
2022/01/28 05:46:29;;;;;;;15.68;3.03;;;5.60;99.90;;;;;;5131893;27;20376;-74
2022/01/28 05:48:56;;;;;;;12.38;2.83;;;5.50;99.90;;;;;;5114959;27;20066;-74
2022/01/28 05:51:22;;;;;;;9.88;2.60;;;5.60;99.90;;;;;;5131063;27;20616;-74
2022/01/28 05:53:48;;;;;;;23.77;4.10;;;5.50;99.90;;;;;;5131901;27;20051;-74
2022/01/28 05:56:14;;;;;;;16.25;3.60;;;5.60;99.90;;;;;;5115055;27;20065;-75
2022/01/28 05:58:39;;;;;;;10.57;2.33;;;5.60;99.90;;;;;;5131040;27;20035;-73
2022/01/28 06:01:05;;;;;;;15.18;3.03;;;5.60;99.90;;;;;;5130840;27;20079;-73
2022/01/28 06:03:31;;;;;;;15.27;2.90;;;5.50;99.90;;;;;;5130969;27;20130;-73
2022/01/28 06:05:57;;;;;;;15.07;3.45;;;5.60;99.90;;;;;;5114374;27;20108;-73
2022/01/28 06:08:22;;;;;;;19.30;3.13;;;5.60;99.90;;;;;;5131310;27;20080;-73
2022/01/28 06:10:48;;;;;;;15.02;2.53;;;5.50;99.90;;;;;;5130947;27;20525;-73
2022/01/28 06:13:14;;;;;;;12.52;3.25;;;5.70;99.90;;;;;;5096186;27;20119;-73
2022/01/28 06:15:41;;;;;;;17.65;3.25;;;5.70;99.90;;;;;;5110161;28;20043;-74
2022/01/28 06:18:08;;;;;;;16.17;2.95;;;5.50;99.90;;;;;;5093603;28;20116;-73
2022/01/28 06:20:34;;;;;;;19.83;3.38;;;5.50;99.90;;;;;;5092508;28;20035;-73
2022/01/28 06:22:59;;;;;;;12.68;3.33;;;5.70;99.90;;;;;;5103296;27;20038;-73
2022/01/28 06:25:25;;;;;;;16.65;3.08;;;5.60;99.90;;;;;;5113603;27;20070;-73
2022/01/28 06:27:51;;;;;;;18.35;2.72;;;5.40;99.90;;;;;;5096562;27;20046;-73
2022/01/28 06:30:17;;;;;;;17.55;3.45;;;5.40;99.90;;;;;;5131273;27;20108;-73
2022/01/28 06:32:43;;;;;;;18.02;3.08;;;5.50;99.90;;;;;;5130278;27;20039;-73
2022/01/28 06:35:09;;;;;;;12.27;3.42;;;5.30;99.90;;;;;;5130779;27;20055;-73
2022/01/28 06:37:37;;;;;;;18.92;2.78;;;5.40;99.90;;;;;;5096444;27;20104;-73
2022/01/28 06:40:05;;;;;;;14.07;3.00;;;5.30;99.90;;;;;;5113712;27;20475;-74
2022/01/28 06:42:31;;;;;;;15.20;2.53;;;5.40;99.90;;;;;;5113315;27;20046;-74
2022/01/28 06:44:56;;;;;;;20.00;3.88;;;5.30;99.90;;;;;;5113743;27;20490;-75
2022/01/28 06:47:22;;;;;;;16.17;2.60;;;5.30;99.90;;;;;;5114011;27;20039;-75
2022/01/28 06:49:48;;;;;;;20.52;3.60;;;5.20;99.90;;;;;;5096807;27;20038;-75
2022/01/28 06:52:14;;;;;;;24.77;3.75;;;5.00;99.90;;;;;;5130829;27;20417;-75
2022/01/28 06:54:40;;;;;;;16.48;3.55;;;5.00;99.90;;;;;;5096393;27;20043;-75
2022/01/28 06:57:05;;;;;;;18.30;3.53;;;4.90;99.90;;;;;;5130767;27;20531;-74
2022/01/28 06:59:31;;;;;;;17.25;3.72;;;4.90;99.90;;;;;;5112763;27;20047;-74
2022/01/28 07:01:57;;;;;;;17.00;2.85;;;5.30;99.90;;;;;;5131038;27;20038;-73
2022/01/28 07:04:22;;;;;;;18.85;3.15;;;5.00;99.90;;;;;;5113196;27;20459;-73
2022/01/28 07:06:48;;;;;;;17.55;3.45;;;4.80;99.90;;;;;;5096371;27;20048;-74
2022/01/28 07:09:14;;;;;;;17.95;3.95;;;4.90;99.90;;;;;;5113222;27;20638;-74
2022/01/28 07:11:40;;;;;;;15.98;3.38;;;4.80;99.90;;;;;;5130678;27;20043;-74
2022/01/28 07:14:05;;;;;;;20.55;3.20;;;4.90;99.90;;;;;;5130309;27;20031;-74
2022/01/28 07:16:31;;;;;;;20.80;3.63;;;4.90;99.90;;;;;;5112690;27;20046;-74
2022/01/28 07:18:57;;;;;;;18.10;3.67;;;5.00;99.90;;;;;;5129121;27;20403;-74
2022/01/28 07:21:22;;;;;;;23.42;4.07;;;4.90;99.90;;;;;;5112577;27;20039;-74
2022/01/28 07:23:48;;;;;;;13.77;2.70;;;4.80;99.90;;;;;;5095605;27;20092;-74
2022/01/28 07:26:14;;;;;;;17.02;3.17;;;4.80;99.90;;;;;;5112409;27;20043;-74
2022/01/28 07:28:41;;;;;;;16.75;2.95;;;4.80;99.90;;;;;;5112276;28;20042;-73
2022/01/28 07:31:09;;;;;;;15.02;3.58;;;4.70;99.90;;;;;;5129856;27;20054;-72
2022/01/28 07:33:35;;;;;;;11.68;3.10;;;4.70;99.90;;;;;;5129550;27;20051;-72
2022/01/28 07:36:01;;;;;;;9.95;3.05;;;4.80;99.90;;;;;;5112476;28;20050;-72
2022/01/28 07:38:26;;;;;;;16.85;3.72;;;4.70;99.90;;;;;;5112142;28;20051;-73
2022/01/28 07:40:52;;;;;;;18.52;3.30;;;4.90;99.90;;;;;;5129408;28;20047;-72
2022/01/28 07:43:18;;;;;;;14.18;2.95;;;4.90;99.90;;;;;;5129627;28;20050;-73
2022/01/28 07:45:44;;;;;;;17.23;3.25;;;5.00;99.90;;;;;;5111357;28;20118;-73
2022/01/28 07:48:09;;;;;;;15.07;2.47;;;5.10;99.90;;;;;;5095711;28;20584;-73
2022/01/28 07:50:35;;;;;;;15.23;3.10;;;4.90;99.90;;;;;;5129305;28;20050;-74
2022/01/28 07:53:03;;;;;;;19.33;3.55;;;5.10;99.90;;;;;;5112265;28;20419;-73
2022/01/28 07:55:29;;;;;;;17.55;2.97;;;4.90;99.90;;;;;;5129250;28;20039;-74
2022/01/28 07:57:55;;;;;;;20.75;4.43;;;5.30;99.90;;;;;;5112349;28;20514;-76
2022/01/28 08:00:26;;;;;;;15.90;2.88;;;5.10;99.90;;;;;;5095656;28;20072;-73
2022/01/28 08:02:53;;;;;;;18.23;3.63;;;5.20;99.90;;;;;;5080231;28;20560;-75
2022/01/28 08:05:18;;;;;;;19.52;4.00;;;5.00;99.90;;;;;;5112301;28;20151;-74
2022/01/28 08:07:44;;;;;;;16.17;3.83;;;5.10;99.90;;;;;;5112041;28;20515;-76
2022/01/28 08:10:11;;;;;;;11.13;3.30;;;5.90;99.90;;;;;;5113017;28;20045;-75
2022/01/28 08:12:45;;;;;;;20.08;3.80;;;5.00;99.90;;;;;;5112156;28;20104;-74
2022/01/28 08:15:10;;;;;;;14.27;3.60;;;5.30;99.90;;;;;;5112505;28;20070;-75
2022/01/28 08:17:36;;;;;;;23.85;4.50;;;5.20;99.90;;;;;;5094614;28;20485;-75
2022/01/28 08:20:02;;;;;;;24.90;4.40;;;5.00;99.90;;;;;;5078340;28;20047;-75
2022/01/28 08:22:28;;;;;;;19.38;4.53;;;5.00;99.90;;;;;;5129132;28;20035;-73
2022/01/28 08:24:53;;;;;;;22.50;3.30;;;5.40;99.90;;;;;;5079873;28;20105;-72
2022/01/28 08:27:19;;;;;;;12.70;3.00;;;5.60;99.90;;;;;;5083595;28;20043;-72
2022/01/28 08:29:45;;;;;;;25.63;4.30;;;5.60;99.90;;;;;;5121836;28;20043;-72
2022/01/28 08:32:10;;;;;;;11.63;3.25;;;5.40;99.90;;;;;;5105060;28;20074;-72
2022/01/28 08:34:36;;;;;;;28.02;3.83;;;5.60;99.90;;;;;;5071623;28;20487;-72
2022/01/28 08:37:04;;;;;;;20.63;3.95;;;5.50;99.90;;;;;;5121552;27;20402;-72
2022/01/28 08:39:34;;;;;;;17.95;3.53;;;5.70;99.90;;;;;;5121963;28;20043;-71
2022/01/28 08:42:00;;;;;;;21.20;3.60;;;5.90;99.90;;;;;;5104582;28;20119;-72
2022/01/28 08:44:27;;;;;;;20.15;3.78;;;5.70;99.90;;;;;;5124084;27;20039;-72
2022/01/28 08:46:52;;;;;;;16.25;2.83;;;6.10;99.90;;;;;;5108103;27;20046;-73
2022/01/28 08:49:18;;;;;;;17.75;3.53;;;5.90;99.90;;;;;;5125617;27;20047;-72
2022/01/28 08:51:45;;;;;;;19.48;3.67;;;6.10;99.90;;;;;;5108543;27;20670;-73
2022/01/28 08:54:10;;;;;;;19.35;3.78;;;6.30;99.90;;;;;;5108740;27;20050;-72
2022/01/28 08:56:36;;;;;;;22.35;3.05;;;6.20;99.90;;;;;;5108764;27;20035;-73
2022/01/28 08:59:02;;;;;;;21.48;3.60;;;6.10;99.90;;;;;;5090916;27;20086;-73
2022/01/28 09:01:29;;;;;;;19.27;3.17;;;5.80;99.90;;;;;;5090433;27;20039;-72
2022/01/28 09:03:55;;;;;;;20.17;4.07;;;5.80;99.90;;;;;;5125178;27;20470;-72
2022/01/28 09:06:21;;;;;;;25.60;5.05;;;5.60;99.90;;;;;;5108116;27;20129;-72
2022/01/28 09:08:49;;;;;;;12.32;2.88;;;5.70;99.90;;;;;;5125104;27;20050;-73
2022/01/28 09:11:32;;;;;;;19.80;3.25;;;5.60;99.90;;;;;;5107909;27;20031;-73
2022/01/28 09:13:59;;;;;;;23.08;3.30;;;5.60;99.90;;;;;;5108370;27;20871;-74
2022/01/28 09:16:24;;;;;;;14.82;3.03;;;5.60;99.90;;;;;;5109149;27;20160;-73
2022/01/28 09:18:51;;;;;;;16.90;3.47;;;5.80;99.90;;;;;;5107188;27;20063;-74
2022/01/28 09:21:18;;;;;;;16.23;2.70;;;5.90;99.90;;;;;;5095407;28;20138;-73
2022/01/28 09:23:46;;;;;;;19.23;3.47;;;6.10;99.90;;;;;;5108954;27;20087;-73
2022/01/28 09:26:12;;;;;;;14.02;3.15;;;6.10;99.90;;;;;;5135790;27;20055;-73
2022/01/28 09:28:38;;;;;;;20.13;4.53;;;6.10;99.90;;;;;;5093470;28;20052;-72
2022/01/28 09:31:04;;;;;;;19.90;3.72;;;6.10;99.90;;;;;;5113135;27;20039;-75
2022/01/28 09:33:30;;;;;;;13.75;3.22;;;6.30;99.90;;;;;;5087377;28;20499;-73
2022/01/28 09:35:56;;;;;;;14.15;2.45;;;6.20;99.90;;;;;;5116880;27;20078;-73
2022/01/28 09:38:22;;;;;;;21.30;3.40;;;6.20;99.90;;;;;;5105091;27;20134;-74
2022/01/28 09:40:49;;;;;;;28.98;6.22;;;6.50;99.90;;;;;;5123163;27;20039;-74
2022/01/28 09:43:15;;;;;;;16.98;3.58;;;6.50;99.90;;;;;;5087287;28;20036;-75
2022/01/28 09:45:41;;;;;;;18.08;3.25;;;6.50;99.90;;;;;;5070167;28;20045;-73
2022/01/28 09:48:06;;;;;;;21.52;3.28;;;6.70;99.90;;;;;;5087921;28;20039;-74
2022/01/28 09:50:34;;;;;;;18.30;3.85;;;7.00;99.90;;;;;;5105011;28;20142;-75
2022/01/28 09:53:01;;;;;;;20.55;4.22;;;7.10;99.90;;;;;;5105451;27;20043;-75
2022/01/28 09:55:27;;;;;;;17.38;3.00;;;7.30;99.90;;;;;;5086077;28;20046;-72
2022/01/28 09:58:01;;;;;;;22.73;4.13;;;7.20;99.90;;;;;;5087399;28;20043;-72
2022/01/28 10:00:28;;;;;;;17.45;3.25;;;6.90;99.90;;;;;;5087145;28;20050;-74
2022/01/28 10:03:05;;;;;;;21.77;3.13;;;6.80;99.90;;;;;;5116410;27;20051;-73
2022/01/28 10:05:33;;;;;;;11.52;3.25;;;6.90;99.90;;;;;;5107404;27;20039;-74
2022/01/28 10:08:20;;;;;;;9.98;2.47;;;6.90;99.90;;;;;;5106936;27;20042;-73
2022/01/28 10:10:53;;;;;;;13.32;2.95;;;6.70;99.90;;;;;;5107128;27;20047;-72
2022/01/28 10:13:38;;;;;;;13.48;2.58;;;6.90;99.90;;;;;;5123411;27;20479;-73
2022/01/28 10:16:29;;;;;;;17.10;3.70;;;6.90;99.90;;;;;;5123976;27;20111;-73
2022/01/28 10:18:55;;;;;;;12.52;3.22;;;6.80;99.90;;;;;;5123921;27;20079;-73
2022/01/28 10:21:20;;;;;;;19.70;2.88;;;7.00;99.90;;;;;;5106380;27;20546;-72
2022/01/28 10:23:58;;;;;;;14.80;3.58;;;6.80;99.90;;;;;;5122664;27;20031;-73
2022/01/28 10:26:33;;;;;;;16.20;3.42;;;6.90;99.90;;;;;;5107837;27;20050;-73
2022/01/28 10:29:00;;;;;;;24.33;3.38;;;6.70;99.90;;;;;;5101434;28;20534;-73
2022/01/28 10:31:40;;;;;;;19.95;4.43;;;6.90;99.90;;;;;;5086098;28;20054;-72
2022/01/28 10:34:33;;;;;;;15.30;3.40;;;6.90;99.90;;;;;;5099022;27;20054;-73
2022/01/28 10:37:20;;;;;;;17.00;3.60;;;7.30;99.90;;;;;;5118280;27;20526;-73
2022/01/28 10:39:47;;;;;;;14.98;3.90;;;7.20;99.90;;;;;;5122962;27;20130;-72
2022/01/28 10:42:37;;;;;;;18.77;3.28;;;7.40;99.90;;;;;;5106725;27;20213;-74
2022/01/28 10:45:03;;;;;;;17.05;3.53;;;7.20;99.90;;;;;;5106309;27;20364;-72
2022/01/28 10:47:37;;;;;;;14.73;3.45;;;7.40;99.90;;;;;;5105975;27;20046;-74
2022/01/28 10:50:26;;;;;;;15.43;3.30;;;7.20;99.90;;;;;;5107651;27;20047;-74
2022/01/28 10:53:03;;;;;;;16.05;2.70;;;7.20;99.90;;;;;;5105943;27;20078;-73
2022/01/28 10:55:31;;;;;;;18.30;2.95;;;7.30;99.90;;;;;;5123256;27;20035;-73
2022/01/28 10:57:57;;;;;;;18.23;3.60;;;7.30;99.90;;;;;;5105637;27;20098;-72
2022/01/28 11:00:27;;;;;;;18.65;2.65;;;7.40;99.90;;;;;;5123190;27;20072;-72
2022/01/28 11:02:54;;;;;;;18.27;3.75;;;7.30;99.90;;;;;;5122853;27;20042;-73
2022/01/28 11:05:21;;;;;;;19.92;3.88;;;7.60;99.90;;;;;;5107055;27;20122;-73
2022/01/28 11:07:48;;;;;;;13.10;3.22;;;7.70;99.90;;;;;;5106354;27;20043;-73
2022/01/28 11:10:14;;;;;;;20.15;3.42;;;7.60;99.90;;;;;;5122905;27;20046;-72
2022/01/28 11:12:40;;;;;;;24.80;4.22;;;7.70;99.90;;;;;;5106300;27;20049;-73
2022/01/28 11:15:07;;;;;;;18.55;3.70;;;7.70;99.90;;;;;;5089010;27;20043;-73
2022/01/28 11:17:35;;;;;;;14.07;3.58;;;7.70;99.90;;;;;;5106073;28;20086;-73
2022/01/28 11:20:01;;;;;;;16.35;2.70;;;7.70;99.90;;;;;;5122553;27;20122;-73
2022/01/28 11:23:08;;;;;;;24.17;3.75;;;7.50;99.90;;;;;;5088852;27;20969;-73
2022/01/28 11:25:57;;;;;;;17.67;3.10;;;7.50;99.90;;;;;;5121730;27;20089;-73
2022/01/28 11:28:50;;;;;;;24.83;4.10;;;7.50;99.90;;;;;;5119591;27;20039;-73
2022/01/28 11:31:55;;;;;;;18.75;3.25;;;7.30;99.90;;;;;;5119762;27;20442;-72
2022/01/28 11:34:25;;;;;;;15.93;3.00;;;7.40;99.90;;;;;;5084929;28;20067;-72
2022/01/28 11:36:53;;;;;;;13.05;3.03;;;7.20;99.90;;;;;;5084919;28;20075;-73
2022/01/28 11:39:33;;;;;;;17.55;3.15;;;7.20;99.90;;;;;;5085038;28;20047;-76
2022/01/28 11:42:04;;;;;;;15.38;3.17;;;7.10;99.90;;;;;;5119216;28;20078;-73
2022/01/28 11:44:50;;;;;;;16.02;3.15;;;7.00;99.90;;;;;;5111122;28;20036;-73
2022/01/28 11:47:24;;;;;;;;;;;7.10;99.90;;;;;;5102009;28;20044;-73
2022/01/28 11:49:58;;;;;;;19.00;3.97;;;7.10;99.90;;;;;;5101763;28;19946;-72
2022/01/28 11:52:27;;;;;;;16.73;2.97;;;7.10;99.90;;;;;;5102595;28;20436;-74
2022/01/28 11:54:53;;;;;;;11.57;2.20;;;7.10;99.90;;;;;;5090913;28;20039;-74
2022/01/28 11:57:21;;;;;;;12.60;3.03;;;7.00;99.90;;;;;;5104630;28;20482;-74
2022/01/28 11:59:48;;;;;;;21.15;3.78;;;7.10;99.90;;;;;;5101615;28;20816;-74
2022/01/28 12:02:15;;;;;;;14.68;3.10;;;6.90;99.90;;;;;;5085457;28;20032;-74
2022/01/28 12:04:43;;;;;;;13.38;2.58;;;6.90;99.90;;;;;;5117052;28;20035;-74
2022/01/28 12:07:22;;;;;;;16.25;3.40;;;6.90;99.90;;;;;;5104031;28;20076;-74
2022/01/28 12:09:51;;;;;;;17.13;3.03;;;7.10;99.90;;;;;;5101644;28;20727;-74
2022/01/28 12:12:45;;;;;;;14.93;2.65;;;7.30;99.90;;;;;;5120793;28;20051;-74
2022/01/28 12:15:17;;;;;;;12.48;3.53;;;7.20;99.90;;;;;;5092871;28;20172;-74
2022/01/28 12:17:46;;;;;;;12.70;2.63;;;7.30;99.90;;;;;;5085854;28;20055;-73
2022/01/28 12:20:15;;;;;;;14.77;2.13;;;7.10;99.90;;;;;;5111536;27;20046;-74
2022/01/28 12:22:59;;;;;;;11.85;2.53;;;7.00;99.90;;;;;;5126568;27;20086;-73
2022/01/28 12:25:43;;;;;;;17.08;3.25;;;7.30;99.90;;;;;;5126340;27;20039;-74
2022/01/28 12:28:26;;;;;;;18.30;4.07;;;7.30;99.90;;;;;;5108352;27;20154;-74
2022/01/28 12:31:01;;;;;;;14.20;3.47;;;7.20;99.90;;;;;;5108215;27;20035;-73
2022/01/28 12:33:36;;;;;;;20.30;2.88;;;7.40;99.90;;;;;;5108643;27;20046;-74
2022/01/28 12:36:15;;;;;;;16.15;3.25;;;7.50;99.90;;;;;;5108135;27;20039;-73
2022/01/28 12:38:55;;;;;;;13.75;3.75;;;7.50;99.90;;;;;;5109125;27;20085;-78
2022/01/28 12:41:23;;;;;;;14.38;2.63;;;7.70;99.90;;;;;;5126096;27;20038;-79
2022/01/28 12:43:49;;;;;;;16.02;3.17;;;8.10;99.90;;;;;;5109281;27;20050;-79
2022/01/28 12:46:16;;;;;;;13.30;2.80;;;8.30;99.90;;;;;;5092998;27;20050;-80
2022/01/28 12:48:53;;;;;;;23.45;3.05;;;8.20;99.90;;;;;;5093367;27;20092;-79
2022/01/28 12:51:23;;;;;;;11.90;2.83;;;8.20;99.90;;;;;;5126059;27;20051;-79
2022/01/28 12:53:54;;;;;;;11.95;2.75;;;8.10;99.90;;;;;;5110929;27;20042;-78
2022/01/28 12:56:50;;;;;;;17.60;3.33;;;7.90;99.90;;;;;;5091916;27;20042;-78
2022/01/28 12:59:16;;;;;;;13.40;2.78;;;7.70;99.90;;;;;;5106548;27;20090;-78
2022/01/28 13:01:50;;;;;;;10.23;2.47;;;7.50;99.90;;;;;;5092915;27;20401;-77
2022/01/28 13:04:19;;;;;;;13.95;2.83;;;7.50;99.90;;;;;;5126614;27;20078;-75
2022/01/28 13:09:22;;;;;;;8.50;2.35;;;7.70;99.90;;;;;;5108734;27;20447;-74
2022/01/28 13:11:55;;;;;;;15.05;2.90;;;7.80;99.90;;;;;;5123903;27;20043;-75
2022/01/28 13:14:27;;;;;;;19.55;3.25;;;7.70;99.90;;;;;;5115409;27;20043;-76
2022/01/28 13:16:54;;;;;;;13.45;2.30;;;7.70;99.90;;;;;;5098525;27;20043;-74
2022/01/28 13:19:20;;;;;;;14.00;2.75;;;7.70;99.90;;;;;;5124686;27;20076;-73
2022/01/28 13:21:48;;;;;;;16.15;2.83;;;7.50;99.90;;;;;;5125012;27;20039;-73
2022/01/28 13:24:18;;;;;;;15.10;2.53;;;7.40;99.90;;;;;;5086666;28;20043;-73
2022/01/28 13:27:04;;;;;;;17.13;2.95;;;7.30;99.90;;;;;;5105525;27;20045;-72
2022/01/28 13:29:44;;;;;;;13.40;2.83;;;7.20;99.90;;;;;;5107910;27;20088;-73
2022/01/28 13:32:12;;;;;;;10.55;2.08;;;7.20;99.90;;;;;;5124813;27;20039;-73
2022/01/28 13:34:49;;;;;;;11.98;2.67;;;7.20;99.90;;;;;;5106822;27;20124;-73
2022/01/28 13:37:38;;;;;;;12.40;2.45;;;7.30;99.90;;;;;;5107571;27;20077;-73
2022/01/28 13:40:26;;;;;;;13.45;2.80;;;7.20;99.90;;;;;;5108238;27;20067;-73
2022/01/28 13:43:02;;;;;;;12.13;2.70;;;7.20;99.90;;;;;;5108199;27;20051;-73
2022/01/28 13:45:50;;;;;;;14.40;2.42;;;7.30;99.90;;;;;;5106934;27;20497;-73
2022/01/28 13:48:37;;;;;;;13.95;3.50;;;7.20;99.90;;;;;;5122798;27;20039;-73
2022/01/28 13:51:16;;;;;;;10.50;2.00;;;7.10;99.90;;;;;;5107316;27;20409;-74
2022/01/28 13:56:42;;;;;;;17.83;2.72;;;7.20;99.90;;;;;;5124412;27;20050;-75
2022/01/28 13:59:23;;;;;;;11.52;2.72;;;7.10;99.90;;;;;;5123307;27;20107;-74
2022/01/28 14:01:50;;;;;;;10.00;2.42;;;7.10;99.90;;;;;;5124712;27;20175;-74
2022/01/28 14:04:24;;;;;;;17.52;2.67;;;7.10;99.90;;;;;;5088627;27;20623;-75
2022/01/28 14:07:12;;;;;;;10.93;2.67;;;7.10;99.90;;;;;;5090867;27;20039;-73
2022/01/28 14:09:50;;;;;;;12.38;2.70;;;7.20;99.90;;;;;;5122745;27;20073;-79
2022/01/28 14:12:43;;;;;;;16.20;3.05;;;7.20;99.90;;;;;;5106647;27;20039;-74
2022/01/28 14:15:38;;;;;;;16.30;2.95;;;7.30;99.90;;;;;;5106856;27;20047;-74
2022/01/28 14:18:05;;;;;;;21.42;3.53;;;7.30;99.90;;;;;;5091811;27;20045;-71
2022/01/28 14:20:30;;;;;;;10.25;3.55;;;7.30;99.90;;;;;;5090599;27;20167;-73
2022/01/28 14:22:57;;;;;;;14.60;3.25;;;7.40;99.90;;;;;;5103404;28;20081;-71
2022/01/28 14:25:23;;;;;;;10.70;2.35;;;7.30;99.90;;;;;;5107682;27;20049;-72
2022/01/28 14:30:55;;;;;;;14.63;2.65;;;7.50;99.90;;;;;;5068721;28;20639;-72
2022/01/28 14:33:21;;;;;;;12.25;2.90;;;7.30;99.90;;;;;;5092363;27;20047;-73
2022/01/28 14:35:47;;;;;;;12.77;2.63;;;7.30;99.90;;;;;;5116489;27;20039;-74
2022/01/28 14:38:12;;;;;;;12.02;2.53;;;7.30;99.90;;;;;;5085498;28;20070;-74
2022/01/28 14:40:38;;;;;;;10.20;2.47;;;7.20;99.90;;;;;;5116766;27;20048;-72